createdAt,value
2023-09-16T00:00:35.974Z,7.87
2023-09-16T00:03:03.886Z,7.87
2023-09-16T00:05:31.254Z,7.87
2023-09-16T00:07:57.796Z,7.88
2023-09-16T00:10:24.395Z,7.85
2023-09-16T00:12:51.084Z,7.84
2023-09-16T00:15:17.733Z,7.82
2023-09-16T00:17:47.359Z,7.80
2023-09-16T00:20:16.811Z,7.75
2023-09-16T00:22:44.681Z,7.70
2023-09-16T00:25:12.162Z,7.68
2023-09-16T00:27:42.308Z,7.67
2023-09-16T00:30:09.625Z,7.65
2023-09-16T00:32:36.449Z,7.60
2023-09-16T00:35:05.049Z,7.58
2023-09-16T00:37:32.838Z,7.55
2023-09-16T00:39:59.497Z,7.51
2023-09-16T00:42:26.437Z,7.48
2023-09-16T00:44:53.119Z,7.48
2023-09-16T00:47:19.814Z,7.47
2023-09-16T00:49:47.396Z,7.48
2023-09-16T00:52:14.448Z,7.50
2023-09-16T00:54:41.373Z,7.50
2023-09-16T00:57:12.784Z,7.51
2023-09-16T00:59:40.190Z,7.52
2023-09-16T01:02:09.573Z,7.55
2023-09-16T01:04:38.210Z,7.56
2023-09-16T01:07:06.698Z,7.56
2023-09-16T01:09:33.704Z,7.58
2023-09-16T01:12:00.756Z,7.59
2023-09-16T01:14:27.671Z,7.60
2023-09-16T01:17:00.251Z,7.59
2023-09-16T01:19:42.317Z,7.59
2023-09-16T01:22:10.660Z,7.57
2023-09-16T01:24:37.551Z,7.53
2023-09-16T01:27:04.248Z,7.49
2023-09-16T01:29:30.992Z,7.46
2023-09-16T01:32:02.554Z,7.45
2023-09-16T01:34:38.197Z,7.45
2023-09-16T01:37:07.769Z,7.42
2023-09-16T01:39:36.882Z,7.39
2023-09-16T01:42:04.405Z,7.37
2023-09-16T01:44:31.201Z,7.39
2023-09-16T01:46:57.838Z,7.40
2023-09-16T01:49:24.660Z,7.39
2023-09-16T01:51:51.602Z,7.40
2023-09-16T01:54:18.298Z,7.42
2023-09-16T01:56:46.419Z,7.43
2023-09-16T01:59:13.024Z,7.42
2023-09-16T02:01:39.618Z,7.41
2023-09-16T02:04:07.287Z,7.40
2023-09-16T02:06:34.425Z,7.38
2023-09-16T02:09:01.241Z,7.36
2023-09-16T02:11:27.840Z,7.34
2023-09-16T02:14:00.124Z,7.33
2023-09-16T02:16:57.888Z,7.31
2023-09-16T02:19:25.000Z,7.31
2023-09-16T02:21:51.588Z,7.34
2023-09-16T02:24:18.264Z,7.36
2023-09-16T02:26:45.751Z,7.38
2023-09-16T02:29:12.298Z,7.40
2023-09-16T02:31:38.998Z,7.42
2023-09-16T02:34:05.754Z,7.41
2023-09-16T02:36:32.489Z,7.39
2023-09-16T02:38:59.083Z,7.35
2023-09-16T02:41:25.798Z,7.32
2023-09-16T02:43:52.402Z,7.30
2023-09-16T02:46:19.450Z,7.29
2023-09-16T02:48:46.276Z,7.30
2023-09-16T02:51:12.907Z,7.29
2023-09-16T02:53:40.174Z,7.29
2023-09-16T02:56:09.697Z,7.29
2023-09-16T02:58:37.307Z,7.28
2023-09-16T03:01:11.511Z,7.28
2023-09-16T03:03:41.306Z,7.27
2023-09-16T03:06:08.740Z,7.29
2023-09-16T03:08:35.351Z,7.34
2023-09-16T03:11:06.512Z,7.37
2023-09-16T03:13:34.706Z,7.37
2023-09-16T03:16:22.013Z,7.39
2023-09-16T03:18:53.244Z,7.39
2023-09-16T03:21:23.914Z,7.37
2023-09-16T03:23:52.375Z,7.35
2023-09-16T03:26:19.446Z,7.34
2023-09-16T03:28:49.242Z,7.33
2023-09-16T03:31:18.895Z,7.34
2023-09-16T03:33:45.879Z,7.34
2023-09-16T03:36:13.120Z,7.35
2023-09-16T03:38:51.500Z,7.34
2023-09-16T03:41:18.877Z,7.33
2023-09-16T03:43:52.182Z,7.33
2023-09-16T03:46:19.446Z,7.34
2023-09-16T03:48:46.555Z,7.35
2023-09-16T03:51:13.974Z,7.36
2023-09-16T03:53:41.401Z,7.39
2023-09-16T03:56:10.113Z,7.42
2023-09-16T03:58:37.959Z,7.45
2023-09-16T04:01:05.325Z,7.45
2023-09-16T04:03:32.685Z,7.45
2023-09-16T04:06:00.224Z,7.45
2023-09-16T04:08:32.846Z,7.49
2023-09-16T04:11:07.953Z,7.53
2023-09-16T04:13:34.731Z,7.50
2023-09-16T04:16:01.341Z,7.49
2023-09-16T04:18:28.098Z,7.48
2023-09-16T04:20:56.692Z,7.46
2023-09-16T04:23:24.422Z,7.46
2023-09-16T04:25:58.877Z,7.43
2023-09-16T04:28:25.991Z,7.39
2023-09-16T04:30:54.508Z,7.37
2023-09-16T04:33:23.012Z,7.38
2023-09-16T04:35:51.835Z,7.38
2023-09-16T04:38:20.112Z,7.40
2023-09-16T04:40:49.230Z,7.46
2023-09-16T04:43:16.566Z,7.54
2023-09-16T04:45:50.698Z,7.62
2023-09-16T04:48:28.768Z,7.73
2023-09-16T04:50:55.567Z,7.83
2023-09-16T04:53:22.135Z,7.95
2023-09-16T04:55:48.747Z,8.06
2023-09-16T04:58:15.572Z,8.18
2023-09-16T05:00:43.405Z,8.30
2023-09-16T05:03:10.194Z,8.41
2023-09-16T05:05:37.129Z,8.53
2023-09-16T05:08:05.239Z,8.68
2023-09-16T05:10:33.015Z,8.93
2023-09-16T05:13:00.606Z,9.18
2023-09-16T05:15:28.726Z,9.41
2023-09-16T05:17:55.502Z,9.64
2023-09-16T05:20:22.503Z,9.81
2023-09-16T05:22:49.849Z,10.00
2023-09-16T05:25:17.627Z,10.20
2023-09-16T05:27:44.629Z,10.41
2023-09-16T05:30:11.848Z,10.56
2023-09-16T05:32:38.831Z,10.72
2023-09-16T05:35:05.886Z,10.82
2023-09-16T05:37:32.478Z,10.91
2023-09-16T05:39:59.071Z,11.03
2023-09-16T05:42:25.957Z,11.30
2023-09-16T05:44:52.563Z,11.68
2023-09-16T05:47:19.894Z,12.28
2023-09-16T05:49:46.758Z,13.18
2023-09-16T05:52:14.344Z,14.29
2023-09-16T05:54:41.153Z,15.45
2023-09-16T05:57:07.903Z,16.53
2023-09-16T05:59:34.820Z,17.37
2023-09-16T06:02:02.815Z,18.19
2023-09-16T06:04:32.031Z,19.02
2023-09-16T06:06:58.801Z,19.78
2023-09-16T06:09:28.318Z,20.52
2023-09-16T06:11:54.923Z,21.01
2023-09-16T06:14:22.528Z,21.53
2023-09-16T06:16:49.190Z,22.16
2023-09-16T06:19:15.947Z,22.47
2023-09-16T06:21:42.888Z,22.89
2023-09-16T06:24:09.657Z,23.46
2023-09-16T06:26:36.229Z,24.04
2023-09-16T06:29:03.343Z,24.47
2023-09-16T06:31:30.016Z,24.44
2023-09-16T06:33:57.838Z,24.98
2023-09-16T06:36:26.348Z,25.64
2023-09-16T06:38:52.930Z,25.81
2023-09-16T06:41:20.385Z,25.43
2023-09-16T06:43:47.101Z,25.32
2023-09-16T06:46:19.257Z,25.56
2023-09-16T06:48:46.574Z,25.69
2023-09-16T06:51:13.213Z,26.12
2023-09-16T06:53:39.752Z,26.55
2023-09-16T06:56:06.357Z,26.74
2023-09-16T06:58:32.912Z,27.36
2023-09-16T07:00:59.523Z,27.92
2023-09-16T07:03:26.248Z,28.28
2023-09-16T07:05:53.044Z,28.65
2023-09-16T07:08:21.177Z,29.11
2023-09-16T07:10:47.875Z,29.48
2023-09-16T07:13:14.534Z,29.79
2023-09-16T07:15:41.404Z,30.04
2023-09-16T07:18:08.137Z,30.26
2023-09-16T07:20:36.931Z,30.54
2023-09-16T07:23:06.945Z,31.07
2023-09-16T07:25:33.857Z,31.40
2023-09-16T07:28:02.050Z,31.60
2023-09-16T07:30:28.669Z,31.64
2023-09-16T07:32:55.239Z,31.82
2023-09-16T07:35:21.903Z,32.03
2023-09-16T07:37:48.549Z,32.12
2023-09-16T07:40:15.256Z,32.14
2023-09-16T07:42:43.105Z,32.45
2023-09-16T07:45:10.515Z,32.72
2023-09-16T07:47:37.257Z,32.67
2023-09-16T07:50:04.269Z,32.77
2023-09-16T07:52:33.776Z,32.29
2023-09-16T07:55:00.854Z,32.39
2023-09-16T07:57:29.510Z,32.27
2023-09-16T07:59:56.187Z,31.60
2023-09-16T08:02:22.813Z,30.98
2023-09-16T08:04:49.539Z,31.00
2023-09-16T08:07:16.459Z,30.96
2023-09-16T08:09:43.291Z,30.37
2023-09-16T08:12:10.353Z,30.94
2023-09-16T08:14:36.989Z,31.16
2023-09-16T08:17:04.818Z,31.21
2023-09-16T08:19:32.465Z,31.91
2023-09-16T08:21:59.343Z,32.09
2023-09-16T08:24:26.360Z,32.50
2023-09-16T08:26:53.382Z,32.21
2023-09-16T08:29:19.956Z,31.49
2023-09-16T08:31:46.606Z,31.08
2023-09-16T08:34:13.278Z,31.27
2023-09-16T08:36:39.840Z,31.07
2023-09-16T08:39:06.428Z,30.47
2023-09-16T08:42:00.211Z,30.21
2023-09-16T08:44:30.052Z,30.75
2023-09-16T08:47:02.541Z,31.07
2023-09-16T08:49:31.705Z,31.36
2023-09-16T08:52:01.618Z,31.31
2023-09-16T08:54:31.318Z,31.10
2023-09-16T08:56:59.210Z,31.44
2023-09-16T08:59:26.801Z,31.69
2023-09-16T09:01:53.562Z,32.14
2023-09-16T09:04:20.661Z,32.47
2023-09-16T09:06:49.298Z,32.89
2023-09-16T09:09:15.910Z,32.61
2023-09-16T09:11:44.637Z,32.22
2023-09-16T09:14:14.815Z,32.52
2023-09-16T09:16:45.382Z,32.97
2023-09-16T09:19:12.979Z,32.11
2023-09-16T09:21:41.711Z,31.54
2023-09-16T09:24:08.293Z,31.56
2023-09-16T09:26:35.537Z,31.40
2023-09-16T09:29:02.197Z,31.54
2023-09-16T09:31:31.562Z,32.02
2023-09-16T09:33:58.325Z,31.54
2023-09-16T09:36:25.936Z,31.19
2023-09-16T09:38:52.669Z,30.84
2023-09-16T09:41:20.352Z,30.58
2023-09-16T09:43:47.029Z,30.47
2023-09-16T09:46:14.042Z,30.52
2023-09-16T09:48:41.162Z,31.18
2023-09-16T09:51:10.060Z,31.84
2023-09-16T09:53:38.120Z,31.95
2023-09-16T09:56:04.841Z,31.83
2023-09-16T09:58:33.080Z,31.99
2023-09-16T10:01:00.175Z,31.80
2023-09-16T10:03:28.414Z,32.23
2023-09-16T10:05:59.105Z,32.64
2023-09-16T10:08:28.301Z,33.26
2023-09-16T10:10:56.062Z,33.32
2023-09-16T10:13:23.339Z,32.89
2023-09-16T10:15:50.406Z,31.98
2023-09-16T10:18:19.433Z,31.35
2023-09-16T10:20:47.893Z,31.49
2023-09-16T10:23:15.063Z,31.97
2023-09-16T10:25:42.202Z,31.65
2023-09-16T10:28:09.797Z,31.78
2023-09-16T10:30:38.353Z,31.36
2023-09-16T10:33:10.285Z,30.93
2023-09-16T10:35:42.397Z,30.88
2023-09-16T10:38:12.141Z,31.61
2023-09-16T10:40:39.790Z,31.87
2023-09-16T10:43:07.827Z,31.82
2023-09-16T10:45:34.892Z,32.32
2023-09-16T10:48:03.209Z,32.23
2023-09-16T10:50:36.037Z,32.12
2023-09-16T10:53:04.037Z,32.11
2023-09-16T10:55:39.721Z,31.72
2023-09-16T10:58:32.731Z,31.33
2023-09-16T11:01:01.588Z,31.44
2023-09-16T11:03:32.605Z,31.98
2023-09-16T11:06:01.024Z,32.37
2023-09-16T11:08:28.194Z,32.75
2023-09-16T11:10:57.116Z,32.95
2023-09-16T11:13:25.714Z,32.52
2023-09-16T11:15:52.695Z,31.59
2023-09-16T11:18:19.864Z,31.01
2023-09-16T11:20:47.287Z,30.71
2023-09-16T11:23:13.984Z,30.75
2023-09-16T11:25:44.894Z,31.24
2023-09-16T11:28:23.988Z,31.80
2023-09-16T11:30:58.885Z,31.92
2023-09-16T11:33:32.735Z,31.36
2023-09-16T11:36:14.649Z,30.52
2023-09-16T11:39:13.226Z,30.02
2023-09-16T11:41:39.827Z,29.67
2023-09-16T11:44:07.695Z,29.68
2023-09-16T11:46:35.429Z,29.87
2023-09-16T11:49:07.247Z,29.88
2023-09-16T11:51:36.962Z,29.69
2023-09-16T11:54:04.902Z,29.97
2023-09-16T11:56:35.860Z,30.46
2023-09-16T11:59:05.454Z,30.34
2023-09-16T12:01:36.114Z,30.49
2023-09-16T12:04:06.117Z,30.70
2023-09-16T12:06:36.949Z,30.90
2023-09-16T12:09:05.968Z,30.62
2023-09-16T12:11:33.597Z,30.27
2023-09-16T12:14:01.792Z,30.33
2023-09-16T12:16:29.118Z,30.47
2023-09-16T12:18:56.962Z,29.87
2023-09-16T12:21:24.425Z,29.68
2023-09-16T12:23:53.072Z,30.06
2023-09-16T12:26:20.727Z,30.40
2023-09-16T12:28:48.387Z,30.55
2023-09-16T12:31:21.926Z,30.64
2023-09-16T12:33:52.329Z,30.73
2023-09-16T12:36:27.595Z,30.64
2023-09-16T12:38:56.178Z,30.15
2023-09-16T12:41:26.609Z,29.26
2023-09-16T12:43:55.875Z,28.68
2023-09-16T12:46:24.028Z,28.55
2023-09-16T12:48:53.250Z,28.80
2023-09-16T12:51:21.077Z,28.78
2023-09-16T12:53:51.547Z,28.80
2023-09-16T12:56:21.540Z,28.90
2023-09-16T12:58:51.407Z,29.10
2023-09-16T13:01:20.913Z,29.35
2023-09-16T13:03:47.959Z,29.23
2023-09-16T13:06:15.093Z,29.23
2023-09-16T13:08:42.481Z,29.26
2023-09-16T13:11:10.649Z,29.21
2023-09-16T13:13:37.491Z,28.74
2023-09-16T13:16:04.883Z,28.12
2023-09-16T13:18:31.661Z,27.98
2023-09-16T13:20:58.566Z,28.17
2023-09-16T13:23:29.721Z,28.40
2023-09-16T13:26:10.170Z,28.33
2023-09-16T13:28:37.036Z,28.06
2023-09-16T13:31:04.017Z,28.04
2023-09-16T13:33:58.176Z,27.83
2023-09-16T13:36:26.209Z,27.70
2023-09-16T13:38:53.101Z,27.36
2023-09-16T13:41:22.202Z,27.15
2023-09-16T13:43:48.911Z,27.20
2023-09-16T13:46:15.589Z,27.28
2023-09-16T13:48:42.346Z,27.36
2023-09-16T13:51:08.898Z,27.43
2023-09-16T13:53:35.481Z,27.46
2023-09-16T13:56:03.345Z,27.28
2023-09-16T13:58:29.983Z,27.23
2023-09-16T14:00:56.742Z,27.38
2023-09-16T14:03:23.550Z,27.37
2023-09-16T14:05:50.426Z,27.29
2023-09-16T14:08:17.042Z,27.19
2023-09-16T14:10:43.640Z,26.85
2023-09-16T14:13:10.323Z,26.84
2023-09-16T14:15:39.397Z,26.62
2023-09-16T14:18:07.964Z,26.55
2023-09-16T14:20:35.593Z,26.65
2023-09-16T14:23:04.956Z,26.50
2023-09-16T14:25:34.028Z,26.42
2023-09-16T14:28:01.979Z,26.46
2023-09-16T14:30:28.592Z,26.40
2023-09-16T14:32:55.288Z,26.35
2023-09-16T14:35:22.035Z,26.28
2023-09-16T14:37:51.526Z,26.16
2023-09-16T14:40:18.212Z,26.10
2023-09-16T14:42:45.381Z,25.99
2023-09-16T14:45:11.951Z,25.87
2023-09-16T14:47:38.573Z,25.75
2023-09-16T14:50:05.750Z,25.62
2023-09-16T14:52:32.657Z,25.52
2023-09-16T14:54:59.771Z,25.52
2023-09-16T14:57:26.753Z,25.46
2023-09-16T14:59:53.291Z,25.35
2023-09-16T15:02:19.928Z,25.26
2023-09-16T15:04:47.635Z,25.04
2023-09-16T15:07:14.419Z,24.80
2023-09-16T15:09:41.022Z,24.63
2023-09-16T15:12:07.988Z,24.51
2023-09-16T15:14:34.525Z,24.22
2023-09-16T15:17:01.220Z,24.03
2023-09-16T15:19:30.233Z,23.98
2023-09-16T15:21:57.094Z,23.93
2023-09-16T15:24:23.695Z,23.85
2023-09-16T15:26:52.745Z,23.75
2023-09-16T15:29:19.321Z,23.63
2023-09-16T15:31:46.542Z,23.54
2023-09-16T15:34:13.279Z,23.42
2023-09-16T15:36:39.892Z,23.32
2023-09-16T15:39:06.497Z,23.26
2023-09-16T15:41:33.707Z,23.15
2023-09-16T15:44:00.265Z,22.93
2023-09-16T15:46:27.326Z,22.74
2023-09-16T15:48:53.948Z,22.61
2023-09-16T15:51:20.695Z,22.55
2023-09-16T15:53:47.395Z,22.44
2023-09-16T15:56:14.162Z,22.26
2023-09-16T15:58:42.770Z,22.07
2023-09-16T16:01:13.545Z,21.89
2023-09-16T16:03:41.879Z,21.75
2023-09-16T16:06:09.760Z,21.62
2023-09-16T16:08:36.535Z,21.48
2023-09-16T16:11:03.100Z,21.33
2023-09-16T16:13:29.691Z,21.21
2023-09-16T16:15:56.421Z,21.10
2023-09-16T16:18:23.293Z,21.00
2023-09-16T16:20:50.177Z,20.89
2023-09-16T16:23:16.725Z,20.76
2023-09-16T16:25:45.750Z,20.67
2023-09-16T16:28:13.225Z,20.56
2023-09-16T16:30:40.881Z,20.45
2023-09-16T16:33:07.833Z,20.34
2023-09-16T16:35:34.511Z,20.24
2023-09-16T16:38:01.060Z,20.12
2023-09-16T16:40:27.978Z,20.01
2023-09-16T16:42:54.647Z,19.92
2023-09-16T16:45:21.275Z,19.82
2023-09-16T16:47:48.899Z,19.74
2023-09-16T16:50:17.764Z,19.67
2023-09-16T16:52:45.308Z,19.59
2023-09-16T16:55:12.069Z,19.47
2023-09-16T16:57:38.691Z,19.37
2023-09-16T17:00:07.388Z,19.27
2023-09-16T17:02:34.967Z,19.16
2023-09-16T17:05:01.841Z,19.05
2023-09-16T17:07:28.623Z,18.96
2023-09-16T17:09:58.622Z,18.86
2023-09-16T17:12:25.751Z,18.79
2023-09-16T17:14:52.363Z,18.69
2023-09-16T17:17:21.212Z,18.63
2023-09-16T17:19:49.395Z,18.54
2023-09-16T17:22:18.929Z,18.46
2023-09-16T17:24:46.349Z,18.38
2023-09-16T17:27:12.989Z,18.29
2023-09-16T17:29:39.790Z,18.21
2023-09-16T17:32:06.650Z,18.11
2023-09-16T17:34:33.298Z,18.04
2023-09-16T17:37:00.638Z,17.98
2023-09-16T17:39:27.289Z,17.90
2023-09-16T17:41:54.990Z,17.85
2023-09-16T17:44:22.088Z,17.79
2023-09-16T17:46:48.722Z,17.75
2023-09-16T17:49:15.822Z,17.74
2023-09-16T17:51:43.568Z,17.70
2023-09-16T17:54:10.601Z,17.68
2023-09-16T17:56:37.617Z,17.66
2023-09-16T17:59:07.093Z,17.67
2023-09-16T18:01:34.003Z,17.67
2023-09-16T18:04:01.394Z,17.65
2023-09-16T18:06:28.092Z,17.62
2023-09-16T18:08:54.664Z,17.59
2023-09-16T18:11:21.666Z,17.56
2023-09-16T18:13:48.758Z,17.51
2023-09-16T18:16:15.666Z,17.45
2023-09-16T18:18:43.015Z,17.40
2023-09-16T18:21:11.106Z,17.34
2023-09-16T18:23:37.725Z,17.29
2023-09-16T18:26:05.621Z,17.24
2023-09-16T18:28:32.558Z,17.23
2023-09-16T18:30:59.638Z,17.17
2023-09-16T18:33:28.648Z,17.11
2023-09-16T18:35:55.772Z,17.12
2023-09-16T18:38:22.570Z,17.15
2023-09-16T18:40:50.754Z,17.12
2023-09-16T18:43:18.321Z,17.02
2023-09-16T18:45:48.064Z,16.97
2023-09-16T18:48:16.093Z,16.90
2023-09-16T18:50:43.428Z,16.84
2023-09-16T18:53:11.241Z,16.80
2023-09-16T18:55:41.996Z,16.77
2023-09-16T18:58:08.827Z,16.71
2023-09-16T19:00:35.505Z,16.68
2023-09-16T19:03:02.426Z,16.68
2023-09-16T19:05:30.857Z,16.63
2023-09-16T19:07:57.390Z,16.59
2023-09-16T19:10:26.175Z,16.57
2023-09-16T19:12:52.793Z,16.54
2023-09-16T19:15:19.356Z,16.48
2023-09-16T19:17:46.352Z,16.45
2023-09-16T19:20:13.022Z,16.43
2023-09-16T19:22:39.614Z,16.39
2023-09-16T19:25:08.886Z,16.35
2023-09-16T19:27:37.844Z,16.32
2023-09-16T19:30:04.771Z,16.29
2023-09-16T19:32:31.408Z,16.27
2023-09-16T19:34:59.295Z,16.22
2023-09-16T19:37:28.370Z,16.20
2023-09-16T19:39:55.661Z,16.15
2023-09-16T19:42:23.130Z,16.12
2023-09-16T19:44:49.736Z,16.12
2023-09-16T19:47:18.951Z,16.09
2023-09-16T19:49:45.667Z,16.05
2023-09-16T19:52:12.269Z,16.00
2023-09-16T19:54:39.293Z,15.97
2023-09-16T19:57:05.936Z,15.94
2023-09-16T19:59:32.547Z,15.90
2023-09-16T20:02:00.114Z,15.85
2023-09-16T20:04:28.096Z,15.81
2023-09-16T20:06:57.137Z,15.79
2023-09-16T20:09:23.704Z,15.74
2023-09-16T20:11:50.348Z,15.69
2023-09-16T20:14:16.893Z,15.66
2023-09-16T20:16:43.633Z,15.62
2023-09-16T20:19:10.344Z,15.59
2023-09-16T20:21:37.074Z,15.57
2023-09-16T20:24:03.807Z,15.54
2023-09-16T20:26:30.621Z,15.50
2023-09-16T20:28:57.191Z,15.47
2023-09-16T20:31:24.067Z,15.42
2023-09-16T20:34:04.517Z,15.38
2023-09-16T20:36:35.538Z,15.34
2023-09-16T20:39:04.480Z,15.31
2023-09-16T20:41:31.723Z,15.27
2023-09-16T20:44:01.843Z,15.24
2023-09-16T20:46:29.245Z,15.19
2023-09-16T20:48:56.013Z,15.15
2023-09-16T20:51:23.014Z,15.11
2023-09-16T20:53:50.142Z,15.07
2023-09-16T20:56:17.312Z,15.04
2023-09-16T20:58:44.188Z,15.02
2023-09-16T21:01:11.398Z,15.01
2023-09-16T21:03:38.575Z,14.97
2023-09-16T21:06:05.325Z,14.95
2023-09-16T21:08:31.947Z,14.92
2023-09-16T21:10:58.574Z,14.90
2023-09-16T21:13:25.286Z,14.86
2023-09-16T21:15:52.748Z,14.82
2023-09-16T21:18:19.722Z,14.78
2023-09-16T21:20:46.346Z,14.76
2023-09-16T21:23:12.996Z,14.72
2023-09-16T21:25:40.800Z,14.67
2023-09-16T21:28:08.006Z,14.64
2023-09-16T21:30:35.212Z,14.61
2023-09-16T21:33:02.907Z,14.58
2023-09-16T21:35:30.325Z,14.58
2023-09-16T21:37:57.337Z,14.54
2023-09-16T21:40:26.210Z,14.51
2023-09-16T21:42:54.150Z,14.48
2023-09-16T21:45:21.236Z,14.44
2023-09-16T21:47:48.160Z,14.41
2023-09-16T21:50:16.615Z,14.41
2023-09-16T21:52:43.571Z,14.42
2023-09-16T21:55:10.308Z,14.38
2023-09-16T21:57:37.121Z,14.34
2023-09-16T22:00:15.240Z,14.30
2023-09-16T22:02:41.885Z,14.25
2023-09-16T22:05:08.734Z,14.20
2023-09-16T22:07:35.326Z,14.16
2023-09-16T22:10:02.732Z,14.12
2023-09-16T22:12:29.327Z,14.10
2023-09-16T22:14:56.033Z,14.09
2023-09-16T22:17:22.727Z,14.07
2023-09-16T22:19:49.358Z,14.04
2023-09-16T22:22:16.134Z,14.01
2023-09-16T22:24:42.783Z,13.97
2023-09-16T22:27:09.360Z,13.95
2023-09-16T22:29:35.904Z,13.91
2023-09-16T22:32:02.556Z,13.89
2023-09-16T22:34:29.283Z,13.86
2023-09-16T22:37:00.889Z,13.82
2023-09-16T22:39:27.655Z,13.77
2023-09-16T22:41:54.171Z,13.72
2023-09-16T22:44:20.798Z,13.68
2023-09-16T22:46:47.571Z,13.64
2023-09-16T22:49:14.376Z,13.61
2023-09-16T22:51:41.313Z,13.58
2023-09-16T22:54:07.912Z,13.54
2023-09-16T22:56:35.808Z,13.50
2023-09-16T22:59:02.693Z,13.46
2023-09-16T23:01:29.594Z,13.43
2023-09-16T23:03:56.348Z,13.39
2023-09-16T23:06:23.103Z,13.36
2023-09-16T23:08:49.768Z,13.32
2023-09-16T23:11:16.335Z,13.29
2023-09-16T23:13:42.930Z,13.25
2023-09-16T23:16:09.796Z,13.22
2023-09-16T23:18:36.556Z,13.19
2023-09-16T23:21:04.029Z,13.17
2023-09-16T23:23:30.631Z,13.14
2023-09-16T23:25:57.186Z,13.11
2023-09-16T23:28:23.812Z,13.07
2023-09-16T23:30:50.803Z,13.03
2023-09-16T23:33:19.226Z,12.99
2023-09-16T23:35:45.840Z,12.96
2023-09-16T23:38:13.397Z,12.92
2023-09-16T23:40:42.251Z,12.87
2023-09-16T23:43:08.984Z,12.83
2023-09-16T23:45:36.964Z,12.81
2023-09-16T23:48:06.918Z,12.78
2023-09-16T23:50:33.656Z,12.74
2023-09-16T23:53:00.438Z,12.68
2023-09-16T23:55:27.547Z,12.66
2023-09-16T23:57:54.345Z,12.64
